Time;durP1;ratioP1;P1;durP2;ratioP2;P2;SDS_P1;SDS_P2;PMS_P1;PMS_P2;Temp;Humidity;BMP_temperature;BMP_pressure;BME280_temperature;BME280_humidity;BME280_pressure;Samples;Min_cycle;Max_cycle;Signal;HPM_P1;HPM_P2
2022/10/19 00:01:41;;;;;;;32.72;25.08;;;;;;;7.46;78.94;100973.69;5075817;28;20059;-74
2022/10/19 00:04:06;;;;;;;34.05;24.17;;;;;;;8.14;78.70;101075.28;5067576;28;20040;-74
2022/10/19 00:06:34;;;;;;;37.53;25.33;;;;;;;9.06;78.63;101208.81;5087561;28;20043;-76
2022/10/19 00:09:01;;;;;;;31.83;23.80;;;;;;;8.99;79.57;101186.00;5068860;28;20036;-76
2022/10/19 00:11:28;;;;;;;38.40;22.75;;;;;;;8.22;80.00;101044.94;5087092;28;20081;-76
2022/10/19 00:13:55;;;;;;;34.60;22.92;;;;;;;9.01;79.69;101183.38;5072539;28;20068;-76
2022/10/19 00:16:22;;;;;;;37.30;21.15;;;;;;;8.98;79.27;101165.00;5067630;28;20032;-75
2022/10/19 00:18:48;;;;;;;42.55;24.80;;;;;;;7.55;79.14;100930.38;5055204;28;20476;-75
2022/10/19 00:21:16;;;;;;;35.75;21.15;;;;;;;8.92;78.16;101141.34;5046931;28;20069;-74
2022/10/19 00:23:43;;;;;;;32.72;20.52;;;;;;;8.43;78.43;101050.63;5063211;28;20504;-75
2022/10/19 00:26:09;;;;;;;32.45;21.63;;;;;;;8.84;79.10;101149.03;5070702;28;20558;-75
2022/10/19 00:28:34;;;;;;;33.15;22.05;;;;;;;8.84;76.35;101157.78;5089325;28;20115;-76
2022/10/19 00:31:09;;;;;;;32.80;21.58;;;;;;;8.79;76.69;101151.56;5087733;28;20055;-74
2022/10/19 00:33:35;;;;;;;35.15;23.67;;;;;;;8.80;75.86;101134.13;5087315;28;20131;-73
2022/10/19 00:36:01;;;;;;;28.77;19.00;;;;;;;9.07;74.82;101155.59;5071265;28;20044;-74
2022/10/19 00:38:27;;;;;;;27.98;20.33;;;;;;;8.53;75.41;101064.75;5078202;28;20064;-74
2022/10/19 00:40:52;;;;;;;29.73;22.95;;;;;;;8.90;74.53;101146.56;5090901;28;20172;-74
2022/10/19 00:43:21;;;;;;;37.50;23.50;;;;;;;8.35;74.73;101039.09;5090514;28;20054;-75
2022/10/19 00:45:47;;;;;;;33.22;21.27;;;;;;;8.54;76.43;101048.19;5086746;28;20037;-74
2022/10/19 00:48:21;;;;;;;32.50;23.52;;;;;;;9.06;76.28;101132.91;5051376;28;20047;-74
2022/10/19 00:50:49;;;;;;;31.92;20.67;;;;;;;8.34;77.69;101026.00;5066439;28;20040;-74
2022/10/19 00:53:15;;;;;;;27.73;20.70;;;;;;;8.88;76.67;101116.84;5077288;28;20051;-75
2022/10/19 00:55:41;;;;;;;30.42;21.65;;;;;;;9.01;76.22;101128.41;5087005;28;20016;-77
2022/10/19 00:58:08;;;;;;;32.35;20.67;;;;;;;8.07;75.85;100982.78;5076924;28;20041;-74
2022/10/19 01:00:34;;;;;;;35.15;21.88;;;;;;;8.88;75.99;101120.34;5072696;28;20041;-76
2022/10/19 01:03:01;;;;;;;35.60;22.98;;;;;;;9.00;75.34;101124.91;5090578;28;20044;-76
2022/10/19 01:05:27;;;;;;;29.98;22.27;;;;;;;8.93;75.69;101128.28;5084852;28;20061;-74
2022/10/19 01:07:54;;;;;;;33.63;24.50;;;;;;;8.99;75.38;101103.94;5085742;28;20475;-76
2022/10/19 01:10:29;;;;;;;41.53;23.83;;;;;;;8.84;75.91;101092.34;5091021;28;20039;-76
2022/10/19 01:13:34;;;;;;;41.65;24.40;;;;;;;9.08;75.73;101117.19;5087460;28;20086;-75
2022/10/19 01:16:13;;;;;;;32.28;23.40;;;;;;;8.09;76.88;100962.78;5060179;28;20059;-75
2022/10/19 01:18:50;;;;;;;33.97;24.65;;;;;;;9.01;76.95;101107.47;5059980;28;20127;-75
2022/10/19 01:21:33;;;;;;;36.53;25.27;;;;;;;8.94;76.77;101096.00;5051327;28;20048;-75
2022/10/19 01:24:17;;;;;;;30.08;24.67;;;;;;;8.95;77.00;101107.38;5087712;28;20082;-78
2022/10/19 01:27:06;;;;;;;;;;;;;;;8.95;76.85;101094.28;5083053;28;20044;-74
2022/10/19 01:29:34;;;;;;;29.42;22.20;;;;;;;8.90;76.97;101088.06;5085946;28;20007;-75
2022/10/19 01:32:07;;;;;;;36.15;25.33;;;;;;;8.88;77.78;101080.22;5090240;28;20036;-76
2022/10/19 01:35:14;;;;;;;41.13;25.60;;;;;;;8.87;78.25;101073.19;5086712;28;20033;-74
2022/10/19 01:37:47;;;;;;;35.80;24.92;;;;;;;8.86;77.99;101076.69;5058066;28;20563;-75
2022/10/19 01:40:29;;;;;;;38.53;26.23;;;;;;;8.61;78.36;101049.19;5069520;28;20044;-76
2022/10/19 01:43:20;;;;;;;40.55;24.98;;;;;;;8.82;79.94;101069.63;5088469;28;20105;-75
2022/10/19 01:46:02;;;;;;;44.05;28.25;;;;;;;8.57;79.90;101063.97;5067187;28;20388;-76
2022/10/19 01:48:32;;;;;;;48.30;26.45;;;;;;;8.11;80.03;101034.28;5060994;28;20045;-73
2022/10/19 01:51:12;;;;;;;35.20;25.92;;;;;;;8.18;80.02;101030.06;5061641;28;20048;-74
2022/10/19 01:53:46;;;;;;;55.45;25.67;;;;;;;8.44;80.11;101051.50;5069382;28;20052;-74
2022/10/19 01:56:13;;;;;;;32.15;23.60;;;;;;;8.42;79.53;101038.38;5079795;28;20527;-74
2022/10/19 01:58:43;;;;;;;38.40;24.55;;;;;;;8.55;79.44;101051.72;5072228;28;20107;-74
2022/10/19 02:01:11;;;;;;;37.67;22.88;;;;;;;8.53;79.43;101050.81;5069782;28;20036;-74
2022/10/19 02:03:38;;;;;;;33.15;24.15;;;;;;;8.49;79.50;101039.38;5069493;28;20064;-74
2022/10/19 02:06:06;;;;;;;33.35;23.48;;;;;;;7.82;80.24;100930.06;5069545;28;20092;-73
2022/10/19 02:08:39;;;;;;;36.03;23.83;;;;;;;7.66;80.71;100922.78;5069656;28;20090;-74
2022/10/19 02:11:05;;;;;;;37.92;23.45;;;;;;;7.54;80.74;100904.25;5046862;28;20032;-75
2022/10/19 02:13:32;;;;;;;41.42;26.15;;;;;;;7.99;81.57;100981.75;5079245;28;20069;-76
2022/10/19 02:16:00;;;;;;;35.33;25.42;;;;;;;7.50;81.64;100898.06;5068733;28;20040;-73
2022/10/19 02:18:33;;;;;;;38.60;24.60;;;;;;;7.35;81.83;100863.81;5060729;28;20392;-74
2022/10/19 02:21:03;;;;;;;30.40;24.40;;;;;;;7.28;82.04;100870.66;5049161;28;20087;-75
2022/10/19 02:23:29;;;;;;;39.47;26.13;;;;;;;8.04;82.24;100994.06;5031122;28;20033;-75
2022/10/19 02:25:55;;;;;;;34.92;26.08;;;;;;;7.43;82.20;100877.91;5049006;28;20032;-75
2022/10/19 02:28:21;;;;;;;31.83;24.85;;;;;;;7.35;82.76;100884.69;5086082;28;20067;-76
2022/10/19 02:30:47;;;;;;;35.88;24.63;;;;;;;7.89;83.13;100985.03;5089096;28;20055;-75
2022/10/19 02:33:13;;;;;;;34.95;20.50;;;;;;;7.83;83.88;100973.59;5089215;28;20056;-74
2022/10/19 02:35:39;;;;;;;33.97;23.63;;;;;;;8.05;83.70;101002.78;5076166;28;20044;-75
2022/10/19 02:38:06;;;;;;;38.63;26.35;;;;;;;7.53;83.48;100899.84;5068613;28;20465;-74
2022/10/19 02:40:38;;;;;;;39.80;28.35;;;;;;;8.13;83.52;101016.00;5069395;28;20165;-74
2022/10/19 02:43:11;;;;;;;34.20;25.98;;;;;;;7.98;84.06;100993.06;5076743;28;20040;-74
2022/10/19 02:45:44;;;;;;;33.28;26.63;;;;;;;8.11;83.49;101000.28;5081869;28;20059;-74
2022/10/19 02:48:20;;;;;;;33.10;20.90;;;;;;;7.61;83.28;100900.91;5063396;28;20045;-74
2022/10/19 02:50:50;;;;;;;35.80;27.42;;;;;;;8.01;83.86;100988.78;5051382;28;20045;-77
2022/10/19 02:53:16;;;;;;;35.80;26.77;;;;;;;8.14;84.74;101020.38;5049265;28;20120;-77
2022/10/19 02:55:42;;;;;;;34.78;27.17;;;;;;;7.75;84.65;100930.78;5086006;28;20134;-75
2022/10/19 02:58:08;;;;;;;45.28;26.13;;;;;;;8.08;84.76;101015.00;5088557;28;20071;-75
2022/10/19 03:00:34;;;;;;;39.42;27.17;;;;;;;7.84;85.06;100969.25;5087820;28;20084;-72
2022/10/19 03:02:59;;;;;;;45.47;29.50;;;;;;;7.28;84.94;100865.44;5088290;28;20189;-76
2022/10/19 03:05:25;;;;;;;38.85;27.30;;;;;;;7.33;85.88;100873.38;5088290;28;20384;-76
2022/10/19 03:07:57;;;;;;;41.45;29.35;;;;;;;7.98;86.40;101004.41;5088142;28;20416;-77
2022/10/19 03:10:23;;;;;;;36.47;27.63;;;;;;;8.02;86.18;100984.44;5082085;28;20043;-73
2022/10/19 03:12:48;;;;;;;42.50;28.60;;;;;;;7.68;86.03;100928.91;5084666;28;20040;-76
2022/10/19 03:15:16;;;;;;;36.25;26.90;;;;;;;7.04;86.38;100844.03;5068099;28;20185;-74
2022/10/19 03:17:41;;;;;;;33.28;28.10;;;;;;;7.10;86.70;100842.44;5048905;28;20028;-76
2022/10/19 03:20:08;;;;;;;40.97;23.20;;;;;;;7.15;86.30;100852.97;5067844;28;20033;-75
2022/10/19 03:22:33;;;;;;;42.50;27.88;;;;;;;8.03;86.02;101001.91;5070161;28;20040;-74
2022/10/19 03:24:58;;;;;;;34.58;22.00;;;;;;;8.01;86.35;100994.00;5067205;28;20124;-71
2022/10/19 03:27:24;;;;;;;47.10;28.02;;;;;;;7.92;86.21;100979.88;5085087;28;20040;-77
2022/10/19 03:29:49;;;;;;;32.95;22.05;;;;;;;7.39;86.88;100902.19;5084875;28;20055;-76
2022/10/19 03:32:15;;;;;;;37.97;27.23;;;;;;;7.79;87.27;101000.50;5087960;28;20464;-75
2022/10/19 03:34:40;;;;;;;46.35;29.17;;;;;;;7.74;87.53;100964.72;5080990;28;20577;-74
2022/10/19 03:37:07;;;;;;;39.25;22.50;;;;;;;7.73;87.98;100989.97;5087643;28;20479;-75
2022/10/19 03:39:33;;;;;;;36.95;21.75;;;;;;;7.74;88.27;100994.31;5087279;28;20357;-76
2022/10/19 03:41:59;;;;;;;38.50;26.17;;;;;;;7.85;87.62;100972.78;5085762;28;20127;-75
2022/10/19 03:44:24;;;;;;;39.50;26.85;;;;;;;7.57;88.50;100948.69;5087610;28;20433;-76
2022/10/19 03:46:50;;;;;;;43.40;27.75;;;;;;;7.58;88.63;100974.81;5074147;28;20044;-75
2022/10/19 03:49:15;;;;;;;35.55;24.13;;;;;;;7.62;88.93;100967.94;5056136;28;20040;-75
2022/10/19 03:51:40;;;;;;;39.45;26.92;;;;;;;7.77;87.85;100949.09;5085367;28;20479;-75
2022/10/19 03:54:11;;;;;;;41.50;29.95;;;;;;;7.69;87.79;100954.16;5046785;28;20076;-75
2022/10/19 03:56:36;;;;;;;42.05;28.95;;;;;;;7.88;88.12;100962.38;5047432;28;20465;-76
2022/10/19 03:59:03;;;;;;;32.92;25.80;;;;;;;7.50;87.84;100908.50;5027128;28;20156;-76
2022/10/19 04:01:30;;;;;;;31.08;22.60;;;;;;;7.01;88.22;100828.31;5048225;28;20035;-74
2022/10/19 04:04:00;;;;;;;37.40;21.92;;;;;;;7.81;88.62;100966.59;5046883;28;20511;-76
2022/10/19 04:06:29;;;;;;;45.03;28.23;;;;;;;7.72;88.89;100959.44;5045290;28;20045;-77
2022/10/19 04:08:55;;;;;;;38.67;28.33;;;;;;;7.49;89.09;100927.66;5046875;28;20037;-75
2022/10/19 04:11:24;;;;;;;33.28;22.52;;;;;;;7.51;88.98;100918.09;5046590;28;20080;-75
2022/10/19 04:13:51;;;;;;;29.48;22.88;;;;;;;7.67;88.74;100916.69;5046264;28;20112;-74
2022/10/19 04:16:17;;;;;;;36.70;22.13;;;;;;;6.92;88.95;100805.50;5047582;28;20107;-76
2022/10/19 04:18:42;;;;;;;48.20;29.08;;;;;;;7.65;89.48;100939.28;5037299;28;20037;-75
2022/10/19 04:21:30;;;;;;;31.00;25.30;;;;;;;7.70;89.58;100948.09;5042669;28;20107;-74
2022/10/19 04:24:04;;;;;;;34.35;22.60;;;;;;;7.66;89.46;100950.63;5028453;28;20417;-74
2022/10/19 04:26:30;;;;;;;33.92;22.25;;;;;;;7.69;89.80;100954.16;5046388;28;20049;-73
2022/10/19 04:29:00;;;;;;;37.13;26.48;;;;;;;6.97;89.74;100814.31;5045141;28;20048;-75
2022/10/19 04:31:27;;;;;;;44.67;28.92;;;;;;;7.46;89.74;100887.53;5046732;28;20029;-76
2022/10/19 04:33:52;;;;;;;32.92;23.33;;;;;;;7.34;89.58;100851.63;5045811;28;20045;-74
2022/10/19 04:36:18;;;;;;;42.33;28.13;;;;;;;6.78;90.22;100786.97;5044594;28;20824;-75
2022/10/19 04:38:44;;;;;;;38.10;29.45;;;;;;;7.07;89.64;100791.91;5045848;28;20033;-75
2022/10/19 04:41:12;;;;;;;40.15;23.65;;;;;;;7.72;90.21;100919.38;5046087;28;20033;-77
2022/10/19 04:43:38;;;;;;;31.17;21.92;;;;;;;7.02;89.91;100783.97;5042082;28;20546;-75
2022/10/19 04:46:06;;;;;;;54.92;23.13;;;;;;;7.46;89.49;100841.41;5045631;28;20044;-75
2022/10/19 04:48:33;;;;;;;33.60;23.70;;;;;;;7.79;89.43;100895.13;5037856;28;20042;-75
2022/10/19 04:50:59;;;;;;;47.08;28.17;;;;;;;7.81;90.03;100923.06;5025855;28;20048;-76
2022/10/19 04:53:25;;;;;;;43.38;22.95;;;;;;;7.78;90.27;100906.47;5054465;28;20052;-75
2022/10/19 04:55:51;;;;;;;41.10;24.35;;;;;;;8.02;89.53;100912.13;5065883;28;20032;-74
2022/10/19 04:58:16;;;;;;;32.28;23.80;;;;;;;8.11;89.10;100910.56;5048083;28;20040;-75
2022/10/19 05:00:42;;;;;;;29.42;21.38;;;;;;;8.06;89.06;100886.94;5065807;28;20044;-76
2022/10/19 05:03:07;;;;;;;44.88;27.50;;;;;;;7.85;89.11;100871.75;5065533;28;20567;-74
2022/10/19 05:05:33;;;;;;;32.92;23.13;;;;;;;8.20;89.27;100911.59;5047717;28;20060;-74
2022/10/19 05:07:59;;;;;;;49.05;23.30;;;;;;;8.25;89.00;100911.69;5065071;28;20035;-76
2022/10/19 05:10:25;;;;;;;32.72;20.55;;;;;;;8.36;88.18;100917.09;5065186;28;20089;-78
2022/10/19 05:12:50;;;;;;;37.03;26.67;;;;;;;7.79;87.63;100788.03;5065539;28;20495;-76
2022/10/19 05:15:16;;;;;;;37.42;27.40;;;;;;;8.45;87.51;100899.84;5065563;28;20134;-76
2022/10/19 05:17:41;;;;;;;39.22;25.30;;;;;;;7.58;87.43;100746.75;5064888;28;20542;-76
2022/10/19 05:20:07;;;;;;;40.72;26.23;;;;;;;7.61;87.05;100744.22;5046276;28;20036;-75
2022/10/19 05:22:33;;;;;;;33.67;22.98;;;;;;;8.58;86.62;100905.28;5028162;28;20160;-73
2022/10/19 05:24:58;;;;;;;32.78;22.20;;;;;;;8.70;86.17;100899.38;5049896;28;20081;-75
2022/10/19 05:27:24;;;;;;;34.88;25.67;;;;;;;8.83;85.31;100883.88;5069417;28;20032;-74
2022/10/19 05:29:49;;;;;;;35.70;25.05;;;;;;;8.95;84.29;100875.31;5069488;28;20114;-76
2022/10/19 05:32:15;;;;;;;35.53;24.83;;;;;;;8.16;83.53;100724.19;5060682;28;20083;-74
2022/10/19 05:34:40;;;;;;;44.97;25.45;;;;;;;8.38;83.05;100763.72;5066675;28;20033;-76
2022/10/19 05:37:06;;;;;;;35.13;25.20;;;;;;;9.13;82.87;100873.78;5063666;28;20041;-76
2022/10/19 05:39:31;;;;;;;37.75;20.23;;;;;;;8.51;82.35;100757.84;5060554;28;20098;-74
2022/10/19 05:41:57;;;;;;;30.95;22.52;;;;;;;9.37;80.93;100886.34;5053479;28;20444;-74
2022/10/19 05:44:22;;;;;;;31.48;23.42;;;;;;;9.37;80.36;100873.25;5055807;28;20094;-74
2022/10/19 05:46:50;;;;;;;46.85;22.33;;;;;;;8.94;79.91;100783.69;5062203;28;20086;-74
2022/10/19 05:49:18;;;;;;;31.08;22.73;;;;;;;9.68;79.51;100890.19;5056886;28;20571;-74
2022/10/19 05:51:44;;;;;;;28.98;20.38;;;;;;;9.15;79.09;100794.41;5055870;28;20159;-76
2022/10/19 05:54:11;;;;;;;35.53;22.15;;;;;;;9.80;78.63;100892.94;5083293;28;20163;-75
2022/10/19 05:56:38;;;;;;;39.63;23.15;;;;;;;9.87;78.58;100889.53;5043251;28;20600;-73
2022/10/19 05:59:05;;;;;;;28.77;21.08;;;;;;;10.01;77.62;100896.66;5068583;28;20404;-76
2022/10/19 06:01:31;;;;;;;35.13;21.67;;;;;;;9.44;76.88;100786.91;5087927;28;20035;-76
2022/10/19 06:03:58;;;;;;;31.75;21.40;;;;;;;10.22;76.29;100914.34;5087611;28;20066;-75
2022/10/19 06:06:25;;;;;;;45.55;20.13;;;;;;;9.99;75.53;100856.44;5088503;28;20063;-75
2022/10/19 06:08:52;;;;;;;33.53;20.65;;;;;;;10.28;75.23;100902.22;5088661;28;20040;-74
2022/10/19 06:11:20;;;;;;;37.38;20.77;;;;;;;10.38;74.85;100904.91;5083822;28;20198;-74
2022/10/19 06:13:48;;;;;;;28.77;21.15;;;;;;;10.44;74.41;100904.94;5050687;28;20028;-72
2022/10/19 06:16:18;;;;;;;31.92;20.95;;;;;;;10.34;74.24;100881.25;5051459;28;20479;-74
2022/10/19 06:18:44;;;;;;;33.47;21.17;;;;;;;10.08;73.79;100825.06;5066962;28;20044;-74
2022/10/19 06:21:15;;;;;;;39.22;21.08;;;;;;;10.08;73.71;100817.19;5085443;28;20102;-76
2022/10/19 06:23:41;;;;;;;43.80;22.13;;;;;;;8.70;73.41;100568.00;5089176;28;20097;-75
2022/10/19 06:26:09;;;;;;;30.92;19.67;;;;;;;10.54;73.13;100884.06;5088794;28;20039;-76
2022/10/19 06:28:36;;;;;;;42.42;22.20;;;;;;;10.76;72.28;100923.59;5089275;28;20036;-76
2022/10/19 06:31:02;;;;;;;42.40;20.73;;;;;;;10.79;72.05;100915.72;5088718;28;20063;-76
2022/10/19 06:33:28;;;;;;;38.63;22.73;;;;;;;10.80;71.51;100909.63;5089010;28;20412;-77
2022/10/19 06:35:54;;;;;;;33.70;19.73;;;;;;;10.72;71.35;100909.56;5069677;28;20135;-74
2022/10/19 06:38:20;;;;;;;25.10;19.75;;;;;;;9.87;71.46;100771.59;5067980;28;20040;-78
2022/10/19 06:40:47;;;;;;;25.75;18.88;;;;;;;10.15;70.88;100788.41;5068437;28;20036;-76
2022/10/19 06:43:13;;;;;;;28.98;19.40;;;;;;;10.09;70.88;100769.13;5066930;28;20044;-75
2022/10/19 06:45:39;;;;;;;25.75;21.40;;;;;;;10.99;70.92;100931.63;5067676;28;20052;-74
2022/10/19 06:48:06;;;;;;;35.08;20.52;;;;;;;11.06;70.72;100912.41;5064582;28;20083;-74
2022/10/19 06:50:32;;;;;;;42.45;20.48;;;;;;;11.00;70.69;100917.63;5035942;28;20061;-75
2022/10/19 06:52:58;;;;;;;29.92;20.80;;;;;;;11.03;71.15;100908.88;5085990;28;20040;-76
2022/10/19 06:55:23;;;;;;;42.58;23.02;;;;;;;10.25;70.29;100780.63;5070431;28;20086;-75
2022/10/19 06:57:49;;;;;;;39.78;22.02;;;;;;;10.98;71.01;100901.88;5088223;28;20050;-74
2022/10/19 07:00:15;;;;;;;26.08;19.73;;;;;;;11.03;71.44;100896.66;5088532;28;20040;-74
2022/10/19 07:02:41;;;;;;;30.50;20.17;;;;;;;11.03;70.38;100895.75;5088072;28;20036;-75
2022/10/19 07:05:14;;;;;;;28.90;20.75;;;;;;;11.31;70.41;100907.31;5088042;28;20036;-75
2022/10/19 07:07:39;;;;;;;35.40;20.25;;;;;;;11.38;70.05;100922.25;5074009;28;20048;-75
2022/10/19 07:10:05;;;;;;;39.63;21.55;;;;;;;10.73;69.39;100781.84;5067566;28;20041;-78
2022/10/19 07:12:30;;;;;;;30.55;19.70;;;;;;;11.54;69.53;100916.19;5081162;28;20040;-74
2022/10/19 07:14:56;;;;;;;29.73;19.92;;;;;;;10.96;69.29;100797.72;5067861;28;20040;-74
2022/10/19 07:17:22;;;;;;;24.33;19.10;;;;;;;11.64;68.62;100922.34;5067800;28;20082;-75
2022/10/19 07:19:47;;;;;;;28.23;19.85;;;;;;;10.96;68.96;100790.72;5049548;28;20108;-77
2022/10/19 07:22:13;;;;;;;24.95;17.27;;;;;;;11.75;68.40;100910.13;5048197;28;20082;-75
2022/10/19 07:24:38;;;;;;;28.13;18.30;;;;;;;11.09;68.33;100767.97;5058154;28;20051;-71
2022/10/19 07:27:04;;;;;;;31.85;18.85;;;;;;;11.48;68.40;100825.91;5067433;28;20041;-76
2022/10/19 07:29:29;;;;;;;26.67;18.65;;;;;;;11.88;67.60;100873.38;5067729;28;20459;-74
2022/10/19 07:31:55;;;;;;;22.80;18.30;;;;;;;12.01;67.23;100899.69;5048819;28;20029;-76
2022/10/19 07:34:20;;;;;;;32.65;16.55;;;;;;;12.14;67.15;100892.69;5067825;28;20032;-73
2022/10/19 07:36:47;;;;;;;25.10;16.88;;;;;;;12.15;66.67;100893.56;5066743;28;20724;-75
2022/10/19 07:39:15;;;;;;;22.35;16.02;;;;;;;12.28;66.29;100890.06;5048261;28;20129;-74
2022/10/19 07:41:43;;;;;;;31.17;18.88;;;;;;;11.30;65.61;100713.75;5085174;28;20078;-72
2022/10/19 07:44:08;;;;;;;23.10;16.33;;;;;;;11.83;65.58;100797.06;5086764;28;20035;-74
2022/10/19 07:46:35;;;;;;;24.50;18.48;;;;;;;12.37;65.17;100884.81;5074527;28;20036;-73
2022/10/19 07:49:03;;;;;;;21.13;15.77;;;;;;;11.76;64.76;100774.28;5067716;28;20041;-75
2022/10/19 07:51:29;;;;;;;26.45;15.15;;;;;;;11.78;64.70;100759.38;5068887;28;20148;-74
2022/10/19 07:53:57;;;;;;;34.05;18.02;;;;;;;11.91;63.94;100765.53;5065836;28;20553;-73
2022/10/19 07:56:24;;;;;;;30.13;14.77;;;;;;;12.12;63.83;100772.56;5061069;28;20089;-73
2022/10/19 07:58:52;;;;;;;31.60;16.17;;;;;;;12.09;63.04;100764.69;5086478;28;20086;-75
2022/10/19 08:01:20;;;;;;;24.60;16.60;;;;;;;12.86;62.23;100894.44;5069066;28;20081;-74
2022/10/19 08:03:46;;;;;;;22.92;14.60;;;;;;;12.94;61.48;100876.84;5082252;28;20548;-76
2022/10/19 08:06:15;;;;;;;23.38;15.32;;;;;;;12.47;61.46;100772.50;5067490;28;20594;-75
2022/10/19 08:08:41;;;;;;;32.95;13.77;;;;;;;13.03;61.67;100863.66;5086145;28;20036;-76
2022/10/19 08:11:15;;;;;;;19.48;13.45;;;;;;;13.22;61.65;100888.19;5086276;28;20481;-73
2022/10/19 08:13:41;;;;;;;40.40;14.25;;;;;;;12.82;60.53;100777.69;5077467;28;20139;-77
2022/10/19 08:16:21;;;;;;;19.23;11.25;;;;;;;13.41;59.98;100873.22;5066214;28;20476;-73
2022/10/19 08:18:47;;;;;;;23.13;14.18;;;;;;;13.33;59.19;100846.03;5062847;28;20040;-74
2022/10/19 08:21:12;;;;;;;34.13;15.32;;;;;;;13.56;59.41;100872.28;5067883;28;20090;-76
2022/10/19 08:23:38;;;;;;;19.08;12.98;;;;;;;13.59;59.54;100880.19;5067901;28;20064;-76
2022/10/19 08:26:03;;;;;;;17.65;13.10;;;;;;;13.78;59.05;100878.31;5086460;28;20067;-75
2022/10/19 08:28:29;;;;;;;18.65;12.70;;;;;;;13.82;58.33;100869.50;5068450;28;20021;-75
2022/10/19 08:30:57;;;;;;;18.63;11.98;;;;;;;13.15;58.10;100741.53;5067731;28;20542;-73
2022/10/19 08:33:24;;;;;;;22.13;10.70;;;;;;;13.96;57.64;100860.63;5086330;28;20093;-76
2022/10/19 08:35:49;;;;;;;25.02;12.45;;;;;;;13.71;57.54;100786.94;5071923;28;20037;-77
2022/10/19 08:38:15;;;;;;;18.55;10.93;;;;;;;14.08;58.06;100864.06;5066244;28;20177;-75
2022/10/19 08:40:44;;;;;;;35.72;11.90;;;;;;;13.65;57.62;100771.13;5066988;28;20380;-76
2022/10/19 08:43:14;;;;;;;23.17;11.65;;;;;;;14.33;57.01;100867.38;5046423;28;20056;-75
2022/10/19 08:45:49;;;;;;;15.02;9.98;;;;;;;14.36;56.92;100880.56;5069286;28;20037;-76
2022/10/19 08:48:24;;;;;;;18.50;11.02;;;;;;;14.41;57.42;100861.16;5064495;28;20090;-75
2022/10/19 08:50:50;;;;;;;19.88;11.82;;;;;;;14.31;55.95;100816.38;5070533;28;20457;-75
2022/10/19 08:53:32;;;;;;;18.25;10.48;;;;;;;14.63;55.96;100848.66;5065687;28;20060;-75
2022/10/19 08:56:24;;;;;;;43.92;11.63;;;;;;;14.69;54.59;100854.78;5065970;28;20060;-74
2022/10/19 08:59:12;;;;;;;23.50;10.80;;;;;;;14.72;53.97;100852.09;5067900;28;20227;-74
2022/10/19 09:01:56;;;;;;;14.18;9.38;;;;;;;14.73;53.38;100840.66;5045049;28;20052;-73
2022/10/19 09:04:29;;;;;;;13.02;9.90;;;;;;;14.82;53.46;100825.56;5050213;28;20141;-73
2022/10/19 09:07:13;;;;;;;15.18;9.45;;;;;;;15.10;53.41;100861.41;5049268;28;20139;-73
2022/10/19 09:09:45;;;;;;;17.67;9.95;;;;;;;14.99;52.77;100832.44;5035171;28;20563;-73
2022/10/19 09:12:16;;;;;;;16.27;8.80;;;;;;;15.10;51.80;100842.00;5086051;28;20124;-76
2022/10/19 09:15:04;;;;;;;17.35;9.70;;;;;;;15.08;51.96;100831.47;5072490;28;20041;-74
2022/10/19 09:17:31;;;;;;;23.33;9.70;;;;;;;15.25;51.68;100855.03;5070431;28;20120;-75
2022/10/19 09:20:12;;;;;;;17.90;10.70;;;;;;;14.52;51.69;100704.38;5060509;28;20029;-75
2022/10/19 09:22:39;;;;;;;15.45;9.65;;;;;;;15.46;51.47;100847.75;5090574;28;20036;-75
2022/10/19 09:25:19;;;;;;;17.85;10.85;;;;;;;15.40;50.85;100806.38;5069693;28;20463;-74
2022/10/19 09:27:47;;;;;;;18.98;10.55;;;;;;;15.66;50.90;100843.03;5060969;28;20036;-75
2022/10/19 09:30:21;;;;;;;17.67;9.98;;;;;;;15.12;50.94;100745.91;5089357;28;20046;-75
2022/10/19 09:32:50;;;;;;;13.82;8.90;;;;;;;15.25;50.71;100746.66;5067957;28;20052;-73
2022/10/19 09:35:19;;;;;;;19.90;9.38;;;;;;;15.84;51.52;100839.28;5079711;28;20056;-73
2022/10/19 09:37:48;;;;;;;18.58;10.07;;;;;;;15.39;49.93;100730.59;5069139;28;20036;-75
2022/10/19 09:40:20;;;;;;;21.48;11.45;;;;;;;16.03;50.01;100840.75;5068763;28;20033;-73
2022/10/19 09:42:49;;;;;;;18.90;9.47;;;;;;;15.66;50.00;100750.44;5067371;28;20069;-77
2022/10/19 09:45:36;;;;;;;15.32;9.70;;;;;;;16.25;49.29;100830.72;5068908;28;20446;-75
2022/10/19 09:48:12;;;;;;;15.00;9.35;;;;;;;15.67;49.00;100714.31;5058740;28;20560;-76
2022/10/19 09:50:42;;;;;;;17.10;9.35;;;;;;;16.35;49.46;100833.19;5056571;28;20068;-76
2022/10/19 09:53:17;;;;;;;11.88;9.57;;;;;;;15.75;48.49;100701.84;5068537;28;20044;-73
2022/10/19 09:55:46;;;;;;;15.65;10.02;;;;;;;16.40;48.81;100803.06;5051142;28;20154;-75
2022/10/19 09:58:12;;;;;;;19.13;10.10;;;;;;;16.59;48.69;100819.50;5069163;28;20090;-76
2022/10/19 10:00:43;;;;;;;16.33;8.90;;;;;;;16.31;48.46;100755.56;5068879;28;20053;-76
2022/10/19 10:03:30;;;;;;;23.05;9.07;;;;;;;16.23;47.79;100710.69;5062238;28;20245;-74
2022/10/19 10:06:06;;;;;;;24.70;10.98;;;;;;;16.83;47.39;100798.78;5049756;28;20048;-74
2022/10/19 10:08:44;;;;;;;11.93;7.65;;;;;;;16.81;46.78;100774.97;5068561;28;20088;-74
2022/10/19 10:11:21;;;;;;;13.30;9.40;;;;;;;17.00;47.28;100788.72;5068385;28;20122;-76
2022/10/19 10:13:54;;;;;;;10.80;7.68;;;;;;;16.84;45.97;100748.41;5068215;28;20029;-74
2022/10/19 10:16:22;;;;;;;13.35;7.88;;;;;;;17.10;46.28;100784.09;5069172;28;20035;-75
2022/10/19 10:19:03;;;;;;;22.65;8.55;;;;;;;17.20;45.77;100776.81;5067461;28;20048;-76
2022/10/19 10:21:48;;;;;;;16.60;7.88;;;;;;;17.32;45.23;100760.63;5055774;28;20044;-75
2022/10/19 10:24:15;;;;;;;22.08;8.02;;;;;;;17.57;45.13;100776.00;5085099;28;20043;-75
2022/10/19 10:26:53;;;;;;;10.35;6.53;;;;;;;17.45;44.06;100724.97;5088621;28;20082;-75
2022/10/19 10:29:27;;;;;;;11.90;7.32;;;;;;;17.77;43.36;100765.81;5088567;28;20044;-73
2022/10/19 10:31:54;;;;;;;11.48;7.00;;;;;;;17.78;44.05;100772.84;5088350;28;20039;-74
2022/10/19 10:34:38;;;;;;;14.32;7.25;;;;;;;17.99;42.98;100770.63;5080850;28;20132;-75
2022/10/19 10:37:06;;;;;;;21.48;6.68;;;;;;;18.03;42.84;100748.41;5068467;28;20052;-74
2022/10/19 10:39:40;;;;;;;17.63;8.18;;;;;;;18.10;42.61;100737.56;5050005;28;20132;-75
2022/10/19 10:42:12;;;;;;;18.58;6.47;;;;;;;18.18;42.51;100732.03;5063714;28;20044;-75
2022/10/19 10:44:43;;;;;;;12.00;6.88;;;;;;;17.79;42.66;100646.28;5067279;28;20037;-74
2022/10/19 10:47:14;;;;;;;12.60;7.32;;;;;;;17.84;42.80;100649.72;5074529;28;20062;-76
2022/10/19 10:49:41;;;;;;;16.05;7.50;;;;;;;18.28;41.90;100698.13;5058472;28;20059;-74
2022/10/19 10:52:11;;;;;;;18.90;7.43;;;;;;;18.73;42.17;100742.94;5067082;28;20051;-75
2022/10/19 10:54:37;;;;;;;16.38;8.65;;;;;;;18.16;42.77;100638.25;5067055;28;20436;-74
2022/10/19 10:57:12;;;;;;;12.70;8.13;;;;;;;18.35;41.61;100665.16;5067072;28;20468;-76
2022/10/19 10:59:54;;;;;;;17.90;8.02;;;;;;;18.34;41.13;100650.16;5067547;28;20032;-76
2022/10/19 11:02:25;;;;;;;22.92;8.20;;;;;;;18.95;40.96;100730.81;5075183;28;20188;-75
2022/10/19 11:04:58;;;;;;;18.35;7.20;;;;;;;18.93;40.87;100716.69;5067076;28;20477;-74
2022/10/19 11:07:26;;;;;;;17.48;8.80;;;;;;;19.09;41.61;100724.22;5046565;28;20029;-73
2022/10/19 11:10:05;;;;;;;18.05;7.25;;;;;;;18.67;40.05;100635.00;5061760;28;20040;-76
2022/10/19 11:12:36;;;;;;;7.60;5.07;;;;;;;19.27;40.90;100731.63;5066386;28;20098;-73
2022/10/19 11:15:11;;;;;;;13.38;8.45;;;;;;;19.36;40.34;100720.72;5066208;28;20119;-76
2022/10/19 11:17:40;;;;;;;14.95;6.32;;;;;;;19.32;40.59;100695.09;5048322;28;20036;-74
2022/10/19 11:20:12;;;;;;;18.92;7.05;;;;;;;19.34;41.19;100706.56;5058340;28;20033;-74
2022/10/19 11:22:52;;;;;;;15.38;6.93;;;;;;;19.21;40.75;100707.00;5067831;28;20039;-73
2022/10/19 11:25:24;;;;;;;15.20;7.30;;;;;;;19.42;40.25;100710.78;5082431;28;20089;-76